Disclaimer

Please do not use the information listed here in-flight or in-navigation, as they are not provided to us by the airports but are provided by volunteers, so they might be outdated.

Search


Regions


Airport information page

Radio informations:
Tower (TWR) - 121.1 MHz
Ground (GND) - 121.6 MHz
Automatic Terminal Information Service (ATIS) - 126.4 MHz

Airport informations:
Latitude: 05° 17' 49.70" N
Longitude: 100° 16' 36.71" E
Elevation: 11 feet - 3 meters
Operating hours: N/A
Operating agency: Civil government, landing fees and diplomatic clearance may be required
Timezone: UTC+8
Fuel: N/A

Runway information:
04/22 - 10997 x 150 feet< - >3352 x 46 meters

Recent METARs:
WMKP 211600Z 00000KT 9000 TS FEW017CB SCT140 BKN270 25/24 Q1011 NOSIG
WMKP 211630Z 00000KT 9000 FEW017CB SCT140 BKN270 25/24 Q1011 RETS NOSIG
WMKP 211700Z 00000KT 9000 FEW017CB SCT140 BKN270 25/24 Q1011 RETS NOSIG

Airport on the map: